Time;durP1;ratioP1;P1;durP2;ratioP2;P2;SDS_P1;SDS_P2;PMS_P1;PMS_P2;Temp;Humidity;BMP_temperature;BMP_pressure;BME280_temperature;BME280_humidity;BME280_pressure;Samples;Min_cycle;Max_cycle;Signal;HPM_P1;HPM_P2
2024/03/13 00:00:41;;;;;;;0.30;0.30;;;13.40;99.90;;;;;;4180832;28;20084;-55
2024/03/13 00:02:45;;;;;;;0.95;0.30;;;13.30;99.90;;;;;;4180873;28;20044;-55
2024/03/13 00:04:48;;;;;;;0.30;0.30;;;13.40;99.90;;;;;;4180736;28;20044;-55
2024/03/13 00:06:50;;;;;;;1.52;0.77;;;13.40;99.90;;;;;;4180655;28;20069;-55
2024/03/13 00:08:53;;;;;;;1.33;0.90;;;13.40;99.90;;;;;;4179822;28;20041;-55
2024/03/13 00:10:55;;;;;;;3.20;2.17;;;13.40;99.90;;;;;;4180863;28;20049;-56
2024/03/13 00:12:57;;;;;;;0.28;0.28;;;13.40;99.90;;;;;;4180780;28;20111;-59
2024/03/13 00:14:59;;;;;;;0.20;0.20;;;13.30;99.90;;;;;;4180946;28;20059;-55
2024/03/13 00:17:01;;;;;;;0.28;0.13;;;13.40;99.90;;;;;;4180659;28;20090;-55
2024/03/13 00:19:03;;;;;;;0.30;0.20;;;13.40;99.90;;;;;;4180359;28;20079;-55
2024/03/13 00:21:08;;;;;;;0.95;0.38;;;13.40;99.90;;;;;;4180296;28;20053;-56
2024/03/13 00:23:10;;;;;;;0.65;0.30;;;13.40;99.90;;;;;;4180435;28;20049;-55
2024/03/13 00:25:12;;;;;;;2.10;0.25;;;13.40;99.90;;;;;;4180521;28;20041;-55
2024/03/13 00:27:15;;;;;;;0.88;0.20;;;13.40;99.90;;;;;;4180943;28;20120;-55
2024/03/13 00:29:17;;;;;;;0.88;0.28;;;13.40;99.90;;;;;;4180718;28;20049;-57
2024/03/13 00:31:19;;;;;;;0.47;0.40;;;13.40;99.90;;;;;;4180674;28;20057;-56
2024/03/13 00:33:22;;;;;;;0.98;0.30;;;13.50;99.90;;;;;;4180538;28;20068;-55
2024/03/13 00:35:24;;;;;;;0.40;0.30;;;13.40;99.90;;;;;;4180229;28;20049;-55
2024/03/13 00:37:28;;;;;;;0.60;0.20;;;13.40;99.90;;;;;;4180726;28;20485;-56
2024/03/13 00:39:30;;;;;;;0.63;0.30;;;13.40;99.90;;;;;;4180701;28;20114;-56
2024/03/13 00:41:32;;;;;;;2.55;0.30;;;13.40;99.90;;;;;;4180377;28;20124;-55
2024/03/13 00:43:34;;;;;;;0.38;0.20;;;13.40;99.90;;;;;;4180666;28;20044;-55
2024/03/13 00:45:37;;;;;;;0.63;0.32;;;13.40;99.90;;;;;;4163256;28;20099;-56
2024/03/13 00:47:39;;;;;;;0.40;0.17;;;13.40;99.90;;;;;;4180626;28;20060;-55
2024/03/13 00:49:42;;;;;;;0.28;0.28;;;13.40;99.90;;;;;;4180549;28;20056;-59
2024/03/13 00:51:44;;;;;;;0.10;0.10;;;13.40;99.90;;;;;;4180017;28;20417;-56
2024/03/13 00:53:48;;;;;;;0.80;0.20;;;13.40;99.90;;;;;;4180142;28;20045;-56
2024/03/13 00:55:51;;;;;;;3.50;0.20;;;13.40;99.90;;;;;;4179871;28;20419;-56
2024/03/13 00:57:53;;;;;;;0.30;0.30;;;13.40;99.90;;;;;;4179952;28;20091;-55
2024/03/13 00:59:57;;;;;;;2.58;0.30;;;13.50;99.90;;;;;;4179980;28;20045;-55
2024/03/13 01:02:01;;;;;;;;;;;13.50;99.90;;;;;;4162946;28;20049;-55
2024/03/13 01:04:04;;;;;;;0.75;0.47;;;13.50;99.90;;;;;;4180085;28;19920;-56
2024/03/13 01:06:06;;;;;;;0.73;0.10;;;13.50;99.90;;;;;;4179779;28;20099;-55
2024/03/13 01:08:08;;;;;;;0.60;0.45;;;13.50;99.90;;;;;;4179853;28;20412;-56
2024/03/13 01:10:12;;;;;;;0.90;0.28;;;13.40;99.90;;;;;;4179804;28;20064;-56
2024/03/13 01:12:14;;;;;;;0.17;0.15;;;13.40;99.90;;;;;;4179538;28;20447;-56
2024/03/13 01:14:19;;;;;;;0.20;0.15;;;13.40;99.90;;;;;;4180144;28;20138;-56
2024/03/13 01:16:22;;;;;;;0.52;0.38;;;13.50;99.90;;;;;;4179976;28;20067;-56
2024/03/13 01:18:25;;;;;;;1.65;0.50;;;13.50;99.90;;;;;;4179734;28;20112;-56
2024/03/13 01:20:28;;;;;;;0.85;0.20;;;13.50;99.90;;;;;;4181329;28;20143;-59
2024/03/13 01:22:34;;;;;;;0.98;0.95;;;13.50;99.90;;;;;;4183503;28;20048;-56
2024/03/13 01:24:38;;;;;;;0.45;0.30;;;13.50;99.90;;;;;;4183616;28;20045;-56
2024/03/13 01:26:44;;;;;;;2.40;0.30;;;13.50;99.90;;;;;;4183129;28;20493;-56
2024/03/13 01:28:46;;;;;;;0.85;0.30;;;13.50;99.90;;;;;;4183434;28;20429;-56
2024/03/13 01:30:48;;;;;;;1.10;0.25;;;13.50;99.90;;;;;;4183354;28;20123;-56
2024/03/13 01:32:51;;;;;;;0.90;0.40;;;13.50;99.90;;;;;;4182439;28;20098;-56
2024/03/13 01:34:53;;;;;;;0.17;0.17;;;13.50;99.90;;;;;;4183282;28;20151;-63
2024/03/13 01:39:20;;;;;;;2.97;0.30;;;13.50;99.90;;;;;;4183194;28;20404;-58
2024/03/13 01:55:44;;;;;;;0.50;0.40;;;13.50;99.90;;;;;;4183307;28;20507;-55
2024/03/13 01:58:08;;;;;;;0.52;0.28;;;13.50;99.90;;;;;;4182615;28;20044;-56
2024/03/13 02:02:32;;;;;;;0.30;0.20;;;13.50;99.90;;;;;;4166250;28;20049;-56
2024/03/13 02:04:35;;;;;;;1.25;0.90;;;13.40;99.90;;;;;;4166114;28;20111;-56
2024/03/13 02:06:38;;;;;;;1.38;0.77;;;13.40;99.90;;;;;;4166283;28;20052;-56
2024/03/13 02:08:40;;;;;;;2.05;0.43;;;13.40;99.90;;;;;;4166203;28;20076;-63
2024/03/13 02:10:42;;;;;;;0.32;0.32;;;13.40;99.90;;;;;;4148513;28;20054;-56
2024/03/13 02:13:02;;;;;;;0.38;0.28;;;13.30;99.90;;;;;;4171768;28;20049;-55
2024/03/13 02:15:05;;;;;;;1.50;0.40;;;13.20;99.90;;;;;;4183332;28;20349;-58
2024/03/13 02:17:08;;;;;;;4.88;1.35;;;13.30;99.90;;;;;;4183864;28;20099;-57
2024/03/13 02:19:11;;;;;;;0.63;0.20;;;13.30;99.90;;;;;;4182931;28;20072;-56
2024/03/13 02:21:13;;;;;;;2.85;0.40;;;13.30;99.90;;;;;;4182934;28;20049;-56
2024/03/13 02:23:23;;;;;;;1.65;0.93;;;13.30;99.90;;;;;;4182707;28;20045;-56
2024/03/13 02:25:25;;;;;;;0.60;0.30;;;13.20;99.90;;;;;;4164616;28;20049;-56
2024/03/13 02:27:27;;;;;;;1.02;0.40;;;13.20;99.90;;;;;;4164665;28;20045;-56
2024/03/13 02:29:31;;;;;;;1.10;0.45;;;13.30;99.90;;;;;;4164868;28;20500;-55
2024/03/13 02:31:33;;;;;;;1.25;0.35;;;13.20;99.90;;;;;;4164745;28;20046;-56
2024/03/13 02:33:38;;;;;;;0.68;0.68;;;13.20;99.90;;;;;;4164751;28;20464;-56
2024/03/13 02:35:43;;;;;;;1.58;0.40;;;13.20;99.90;;;;;;4165894;28;20494;-63
2024/03/13 02:37:45;;;;;;;1.13;1.03;;;13.20;99.90;;;;;;4165285;28;20077;-55
2024/03/13 02:39:47;;;;;;;3.38;2.28;;;13.10;99.90;;;;;;4164387;28;20052;-56
2024/03/13 02:41:49;;;;;;;0.85;0.32;;;13.20;99.90;;;;;;4164601;28;20045;-55
2024/03/13 02:43:51;;;;;;;2.65;0.90;;;13.20;99.90;;;;;;4164343;28;20049;-56
2024/03/13 02:45:54;;;;;;;1.50;0.73;;;13.20;99.90;;;;;;4164113;28;20152;-55
2024/03/13 02:47:56;;;;;;;2.35;0.43;;;13.20;99.90;;;;;;4164559;28;20060;-55
2024/03/13 02:49:58;;;;;;;2.53;0.40;;;13.20;99.90;;;;;;4165220;28;20128;-56
2024/03/13 02:52:00;;;;;;;0.30;0.30;;;13.20;99.90;;;;;;4164802;28;20041;-55
2024/03/13 02:54:04;;;;;;;1.42;0.45;;;13.10;99.90;;;;;;4164191;28;20510;-55
2024/03/13 02:56:07;;;;;;;1.05;0.50;;;13.10;99.90;;;;;;4164063;28;20045;-56
2024/03/13 02:58:10;;;;;;;1.95;0.68;;;13.10;99.90;;;;;;4163387;28;20049;-58
2024/03/13 03:00:14;;;;;;;1.30;1.10;;;13.00;99.90;;;;;;4156365;28;20053;-56
2024/03/13 03:02:16;;;;;;;0.70;0.25;;;13.00;99.90;;;;;;4148019;28;20531;-56
2024/03/13 03:04:18;;;;;;;0.98;0.47;;;13.00;99.90;;;;;;4147992;28;20060;-56
2024/03/13 03:06:21;;;;;;;0.22;0.20;;;13.00;99.90;;;;;;4148163;28;20537;-55
2024/03/13 03:08:23;;;;;;;0.85;0.57;;;13.00;99.90;;;;;;4147464;28;20519;-56
2024/03/13 03:10:25;;;;;;;0.30;0.30;;;12.90;99.90;;;;;;4147667;28;20054;-55
2024/03/13 03:12:27;;;;;;;1.05;0.45;;;12.90;99.90;;;;;;4147649;28;20070;-56
2024/03/13 03:14:32;;;;;;;0.77;0.55;;;12.90;99.90;;;;;;4163468;28;20129;-56
2024/03/13 03:16:34;;;;;;;1.52;0.68;;;12.90;99.90;;;;;;4164522;28;20054;-62
2024/03/13 03:18:36;;;;;;;1.17;0.50;;;12.90;99.90;;;;;;4163591;28;20053;-55
2024/03/13 03:20:40;;;;;;;0.45;0.30;;;12.80;99.90;;;;;;4163728;28;20133;-56
2024/03/13 03:22:42;;;;;;;1.17;0.35;;;12.80;99.90;;;;;;4164102;28;20132;-56
2024/03/13 03:24:48;;;;;;;2.63;0.60;;;12.80;99.90;;;;;;4163866;28;20448;-59
2024/03/13 03:26:50;;;;;;;0.52;0.20;;;12.70;99.90;;;;;;4164196;28;20141;-55
2024/03/13 03:28:53;;;;;;;1.10;0.82;;;12.70;99.90;;;;;;4163331;28;20426;-55
2024/03/13 03:30:56;;;;;;;1.20;0.65;;;12.70;99.90;;;;;;4163929;28;20049;-56
2024/03/13 03:33:00;;;;;;;1.50;0.60;;;12.70;99.90;;;;;;4163618;28;20049;-56
2024/03/13 03:35:03;;;;;;;0.70;0.30;;;12.70;99.90;;;;;;4163959;28;20051;-57
2024/03/13 03:37:05;;;;;;;1.00;0.32;;;12.70;99.90;;;;;;4163085;28;20472;-56
2024/03/13 03:39:15;;;;;;;0.88;0.63;;;12.80;99.90;;;;;;4163260;28;20065;-55
2024/03/13 03:41:17;;;;;;;1.10;0.68;;;12.70;99.90;;;;;;4164838;28;20080;-57
2024/03/13 03:43:19;;;;;;;1.42;0.50;;;12.80;99.90;;;;;;4146579;28;20049;-56
2024/03/13 03:45:22;;;;;;;1.45;1.17;;;12.80;99.90;;;;;;4146724;28;20529;-56
2024/03/13 03:47:24;;;;;;;1.50;0.28;;;12.80;99.90;;;;;;4163669;28;20080;-56
2024/03/13 03:49:27;;;;;;;0.47;0.47;;;12.80;99.90;;;;;;4163521;28;20049;-57
2024/03/13 03:51:29;;;;;;;1.17;0.47;;;12.80;99.90;;;;;;4163707;28;20046;-56
2024/03/13 03:53:31;;;;;;;1.48;0.95;;;12.90;99.90;;;;;;4148208;28;20441;-56
2024/03/13 03:55:33;;;;;;;0.77;0.75;;;12.90;99.90;;;;;;4147680;28;20057;-57
2024/03/13 03:57:35;;;;;;;2.15;0.20;;;12.90;99.90;;;;;;4163783;28;20073;-56
2024/03/13 03:59:38;;;;;;;0.82;0.60;;;12.90;99.90;;;;;;4155575;28;20401;-57
2024/03/13 04:01:43;;;;;;;2.08;1.02;;;12.80;99.90;;;;;;4147832;28;20073;-60
2024/03/13 04:03:47;;;;;;;0.60;0.45;;;12.80;99.90;;;;;;4148094;28;20158;-55
2024/03/13 04:05:50;;;;;;;0.65;0.40;;;12.80;99.90;;;;;;4146802;28;20099;-55
2024/03/13 04:07:52;;;;;;;2.28;0.60;;;12.80;99.90;;;;;;4147330;28;20115;-55
2024/03/13 04:09:55;;;;;;;0.30;0.25;;;12.80;99.90;;;;;;4146207;28;20070;-56
2024/03/13 04:11:57;;;;;;;0.38;0.38;;;12.80;99.90;;;;;;4146967;28;20081;-55
2024/03/13 04:14:01;;;;;;;0.95;0.50;;;12.90;99.90;;;;;;4146832;28;20125;-55
2024/03/13 04:16:04;;;;;;;0.90;0.70;;;13.00;99.90;;;;;;4163473;28;20053;-55
2024/03/13 04:18:07;;;;;;;0.60;0.32;;;12.90;99.90;;;;;;4163387;28;20072;-55
2024/03/13 04:20:12;;;;;;;1.02;0.38;;;12.90;99.90;;;;;;4162339;28;20056;-56
2024/03/13 04:22:14;;;;;;;0.45;0.25;;;12.90;99.90;;;;;;4162983;28;20045;-55
2024/03/13 04:24:17;;;;;;;0.22;0.20;;;12.90;99.90;;;;;;4146524;28;20596;-56
2024/03/13 04:26:19;;;;;;;1.65;0.95;;;12.90;99.90;;;;;;4162737;28;20065;-56
2024/03/13 04:28:22;;;;;;;0.50;0.20;;;12.90;99.90;;;;;;4162720;28;20041;-55
2024/03/13 04:30:24;;;;;;;0.30;0.20;;;12.90;99.90;;;;;;4162746;28;20083;-56
2024/03/13 04:32:26;;;;;;;1.70;0.30;;;12.90;99.90;;;;;;4162753;28;20512;-55
2024/03/13 04:34:29;;;;;;;0.95;0.68;;;12.80;99.90;;;;;;4162226;28;20064;-55
2024/03/13 04:36:35;;;;;;;0.50;0.17;;;12.80;99.90;;;;;;4162383;28;20069;-56
2024/03/13 04:38:37;;;;;;;0.15;0.15;;;12.80;99.90;;;;;;4162780;28;20065;-55
2024/03/13 04:40:39;;;;;;;2.50;0.40;;;12.80;99.90;;;;;;4162604;28;20549;-55
2024/03/13 04:42:41;;;;;;;1.30;0.75;;;12.80;99.90;;;;;;4162671;28;20054;-56
2024/03/13 04:44:44;;;;;;;0.60;0.20;;;12.80;99.90;;;;;;4145964;28;20046;-59
2024/03/13 04:46:46;;;;;;;2.03;0.38;;;12.80;99.90;;;;;;4146299;28;20045;-56
2024/03/13 04:48:49;;;;;;;3.40;1.27;;;12.80;99.90;;;;;;4162232;28;20045;-56
2024/03/13 04:50:51;;;;;;;0.70;0.20;;;12.80;99.90;;;;;;4162730;28;20042;-59
2024/03/13 04:52:53;;;;;;;0.88;0.35;;;12.80;99.90;;;;;;4163275;28;20403;-57
2024/03/13 04:54:56;;;;;;;0.55;0.30;;;12.80;99.90;;;;;;4162988;28;20513;-56
2024/03/13 04:57:00;;;;;;;0.73;0.50;;;12.80;99.90;;;;;;4163105;28;20045;-60
2024/03/13 04:59:02;;;;;;;1.20;0.32;;;12.80;99.90;;;;;;4155921;28;20528;-56
2024/03/13 05:01:04;;;;;;;0.10;0.10;;;12.80;99.90;;;;;;4161565;28;20516;-56
2024/03/13 05:03:07;;;;;;;0.10;0.10;;;12.90;99.90;;;;;;4146155;28;20045;-55
2024/03/13 05:05:15;;;;;;;0.40;0.30;;;12.80;99.90;;;;;;4146559;28;20576;-55
2024/03/13 05:07:18;;;;;;;1.48;0.95;;;12.90;99.90;;;;;;4147537;28;20088;-56
2024/03/13 05:09:20;;;;;;;3.85;0.85;;;13.00;99.90;;;;;;4147230;28;20596;-56
2024/03/13 05:11:22;;;;;;;0.90;0.43;;;13.00;99.90;;;;;;4147423;28;20089;-57
2024/03/13 05:13:24;;;;;;;1.80;0.57;;;13.00;99.90;;;;;;4146710;28;20128;-56
2024/03/13 05:15:27;;;;;;;0.80;0.30;;;12.90;99.90;;;;;;4162317;28;20057;-56
2024/03/13 05:17:29;;;;;;;0.50;0.30;;;12.90;99.90;;;;;;4161910;28;20050;-56
2024/03/13 05:19:32;;;;;;;0.75;0.20;;;12.90;99.90;;;;;;4162532;28;20049;-58
2024/03/13 05:21:34;;;;;;;0.47;0.28;;;12.90;99.90;;;;;;4162311;28;20103;-55
2024/03/13 05:23:37;;;;;;;3.53;0.50;;;12.90;99.90;;;;;;4162609;28;20128;-57
2024/03/13 05:25:39;;;;;;;0.30;0.30;;;13.00;99.90;;;;;;4162354;28;20049;-56
2024/03/13 05:27:41;;;;;;;0.20;0.20;;;13.00;99.90;;;;;;4162281;28;20053;-55
2024/03/13 05:29:44;;;;;;;1.27;0.40;;;13.00;99.90;;;;;;4162649;28;20045;-55
2024/03/13 05:31:49;;;;;;;0.30;0.22;;;13.00;99.90;;;;;;4146447;28;20050;-56
2024/03/13 05:33:52;;;;;;;0.30;0.30;;;13.00;99.90;;;;;;4146411;28;20134;-56
2024/03/13 05:35:54;;;;;;;0.60;0.28;;;13.10;99.90;;;;;;4162717;28;20132;-55
2024/03/13 05:37:57;;;;;;;0.45;0.20;;;13.00;99.90;;;;;;4162512;28;20124;-60
2024/03/13 05:40:01;;;;;;;0.57;0.38;;;13.00;99.90;;;;;;4163347;28;20045;-56
2024/03/13 05:42:03;;;;;;;0.98;0.88;;;13.00;99.90;;;;;;4163718;28;20069;-57
2024/03/13 05:44:07;;;;;;;0.77;0.30;;;13.00;99.90;;;;;;4163081;28;20093;-56
2024/03/13 05:46:11;;;;;;;0.90;0.57;;;13.00;99.90;;;;;;4162177;28;20056;-57
2024/03/13 05:48:14;;;;;;;1.75;0.20;;;13.00;99.90;;;;;;4162199;28;20048;-57
2024/03/13 05:50:17;;;;;;;4.32;1.20;;;13.00;99.90;;;;;;4145775;28;20094;-55
2024/03/13 05:52:20;;;;;;;1.27;0.30;;;13.00;99.90;;;;;;4162454;28;20409;-56
2024/03/13 05:54:23;;;;;;;1.30;1.00;;;13.00;99.90;;;;;;4162188;28;20064;-55
2024/03/13 05:56:26;;;;;;;1.73;0.85;;;13.10;99.90;;;;;;4161922;28;20493;-57
2024/03/13 05:58:28;;;;;;;0.40;0.30;;;13.10;99.90;;;;;;4159157;28;20046;-56
2024/03/13 06:00:30;;;;;;;0.75;0.75;;;13.00;99.90;;;;;;4156992;28;20057;-55
2024/03/13 06:02:33;;;;;;;0.30;0.30;;;13.10;99.90;;;;;;4145505;28;20057;-56
2024/03/13 06:04:36;;;;;;;0.28;0.17;;;13.10;99.90;;;;;;4145950;28;20056;-58
2024/03/13 06:06:39;;;;;;;1.35;0.95;;;13.10;99.90;;;;;;4147975;28;20057;-55
2024/03/13 06:08:41;;;;;;;0.20;0.20;;;13.10;99.90;;;;;;4148683;28;20092;-56
2024/03/13 06:10:44;;;;;;;0.15;0.13;;;13.00;99.90;;;;;;4131744;28;20054;-56
2024/03/13 06:12:46;;;;;;;0.88;0.30;;;13.00;99.90;;;;;;4148283;28;20045;-56
2024/03/13 06:14:48;;;;;;;0.43;0.40;;;13.00;99.90;;;;;;4164948;28;20049;-58
2024/03/13 06:16:50;;;;;;;0.73;0.73;;;13.10;99.90;;;;;;4164812;28;20041;-56
2024/03/13 06:18:54;;;;;;;0.43;0.20;;;13.10;99.90;;;;;;4165511;28;20100;-55
2024/03/13 06:20:56;;;;;;;1.40;0.40;;;13.10;99.90;;;;;;4165111;28;20065;-56
2024/03/13 06:22:58;;;;;;;0.25;0.17;;;13.10;99.90;;;;;;4164768;28;20084;-56
2024/03/13 06:25:06;;;;;;;1.58;0.70;;;13.10;99.90;;;;;;4164987;28;20046;-56
2024/03/13 06:27:15;;;;;;;0.40;0.17;;;13.00;99.90;;;;;;4165384;28;20100;-55
2024/03/13 06:31:39;;;;;;;0.80;0.30;;;13.10;99.90;;;;;;4166966;28;20052;-63
2024/03/13 06:33:42;;;;;;;0.57;0.20;;;13.00;99.90;;;;;;4164629;28;20041;-55
2024/03/13 06:35:44;;;;;;;1.17;0.20;;;13.00;99.90;;;;;;4164745;28;20119;-55
2024/03/13 06:37:46;;;;;;;2.20;0.20;;;13.00;99.90;;;;;;4164474;28;20103;-55
2024/03/13 06:39:49;;;;;;;0.43;0.20;;;13.00;99.90;;;;;;4164489;28;20576;-55
2024/03/13 06:41:51;;;;;;;1.55;0.20;;;13.00;99.90;;;;;;4164460;28;20103;-59
2024/03/13 06:43:54;;;;;;;0.75;0.50;;;13.00;99.90;;;;;;4164538;28;20151;-56
2024/03/13 06:45:56;;;;;;;0.20;0.20;;;13.00;99.90;;;;;;4163656;28;20112;-56
2024/03/13 06:48:00;;;;;;;0.88;0.50;;;13.00;99.90;;;;;;4164277;28;20067;-56
2024/03/13 06:50:03;;;;;;;0.40;0.40;;;13.00;99.90;;;;;;4164341;28;20532;-55
2024/03/13 06:52:12;;;;;;;1.02;0.30;;;13.00;99.90;;;;;;4164250;28;20140;-56
2024/03/13 06:54:14;;;;;;;0.82;0.30;;;13.10;99.90;;;;;;4164963;28;20049;-56
2024/03/13 06:56:16;;;;;;;0.55;0.30;;;13.00;99.90;;;;;;4164392;28;20049;-55
2024/03/13 06:58:19;;;;;;;2.08;1.20;;;13.00;99.90;;;;;;4162674;28;20432;-55
2024/03/13 07:00:21;;;;;;;0.32;0.25;;;13.10;99.90;;;;;;4147731;28;20505;-57
2024/03/13 07:02:23;;;;;;;1.42;0.30;;;13.10;99.90;;;;;;4147379;28;20046;-55
2024/03/13 07:04:26;;;;;;;0.43;0.43;;;13.10;99.90;;;;;;4147962;28;20042;-56
2024/03/13 07:06:28;;;;;;;2.63;0.65;;;13.10;99.90;;;;;;4147348;28;20121;-57
2024/03/13 07:08:31;;;;;;;0.52;0.28;;;13.10;99.90;;;;;;4147564;28;20149;-55
2024/03/13 07:10:33;;;;;;;0.32;0.30;;;13.10;99.90;;;;;;4147520;28;20414;-56
2024/03/13 07:12:35;;;;;;;0.52;0.30;;;13.20;99.90;;;;;;4152550;28;20045;-56
2024/03/13 07:14:38;;;;;;;0.32;0.10;;;13.20;99.90;;;;;;4147814;28;20474;-60
2024/03/13 07:16:40;;;;;;;0.28;0.28;;;13.20;99.90;;;;;;4164206;28;20136;-57
2024/03/13 07:18:42;;;;;;;1.00;0.30;;;13.20;99.90;;;;;;4163944;28;20052;-56
2024/03/13 07:20:44;;;;;;;0.32;0.22;;;13.20;99.90;;;;;;4163893;28;20049;-56
2024/03/13 07:22:47;;;;;;;0.10;0.10;;;13.20;99.90;;;;;;4163535;28;20056;-57
2024/03/13 07:24:49;;;;;;;0.65;0.55;;;13.30;99.90;;;;;;4164049;28;20049;-56
2024/03/13 07:26:51;;;;;;;0.35;0.32;;;13.30;99.90;;;;;;4163942;28;20049;-56
2024/03/13 07:28:53;;;;;;;0.68;0.30;;;13.20;99.90;;;;;;4163621;28;20417;-55
2024/03/13 07:31:00;;;;;;;1.55;0.57;;;13.40;99.90;;;;;;4164496;28;20057;-56
2024/03/13 07:33:06;;;;;;;0.55;0.35;;;13.30;99.90;;;;;;4163723;28;20049;-55
2024/03/13 07:35:10;;;;;;;2.15;1.23;;;13.20;99.90;;;;;;4164549;28;20049;-58
2024/03/13 07:37:12;;;;;;;0.77;0.40;;;13.20;99.90;;;;;;4164613;28;20053;-62
2024/03/13 07:39:14;;;;;;;0.30;0.30;;;13.30;99.90;;;;;;4164687;28;20557;-58
2024/03/13 07:41:17;;;;;;;3.30;0.30;;;13.30;99.90;;;;;;4164580;28;20079;-60
2024/03/13 07:43:19;;;;;;;1.42;0.90;;;13.30;99.90;;;;;;4164405;28;20124;-60
2024/03/13 07:45:26;;;;;;;0.17;0.17;;;13.30;99.90;;;;;;4164553;28;20082;-55
2024/03/13 07:47:30;;;;;;;0.30;0.17;;;13.40;99.90;;;;;;4147989;28;20046;-56
2024/03/13 07:49:32;;;;;;;0.47;0.30;;;13.40;99.90;;;;;;4163120;28;20128;-55
2024/03/13 07:51:40;;;;;;;0.20;0.08;;;13.30;99.90;;;;;;4164122;28;20042;-56
2024/03/13 07:53:42;;;;;;;0.93;0.68;;;13.30;99.90;;;;;;4163306;28;20053;-56
2024/03/13 07:55:46;;;;;;;1.05;0.30;;;13.30;99.90;;;;;;4163273;28;20041;-56
2024/03/13 07:57:48;;;;;;;0.30;0.30;;;13.30;99.90;;;;;;4162941;28;20049;-56
2024/03/13 07:59:51;;;;;;;0.73;0.30;;;13.20;99.90;;;;;;4155091;28;20141;-56
2024/03/13 08:01:53;;;;;;;1.25;0.25;;;13.30;99.90;;;;;;4147035;28;20046;-55
2024/03/13 08:03:56;;;;;;;0.55;0.20;;;13.40;99.90;;;;;;4146783;28;20046;-56
2024/03/13 08:05:58;;;;;;;0.10;0.10;;;13.40;99.90;;;;;;4147115;28;20079;-56
2024/03/13 08:08:18;;;;;;;2.90;0.28;;;13.40;99.90;;;;;;4151642;28;20057;-56
2024/03/13 08:10:37;;;;;;;1.08;0.75;;;13.30;99.90;;;;;;4151365;28;20057;-60
2024/03/13 08:12:57;;;;;;;1.80;0.52;;;13.40;99.90;;;;;;4151530;28;20502;-56
2024/03/13 08:15:17;;;;;;;0.52;0.20;;;13.50;99.90;;;;;;4165705;28;20053;-56
2024/03/13 08:17:37;;;;;;;0.30;0.30;;;13.60;99.90;;;;;;4165741;28;20045;-57
2024/03/13 08:19:57;;;;;;;0.32;0.25;;;13.50;99.90;;;;;;4165906;28;20076;-56
2024/03/13 08:22:17;;;;;;;0.40;0.40;;;13.60;99.90;;;;;;4165698;28;20103;-59
2024/03/13 08:24:36;;;;;;;0.40;0.30;;;13.70;99.90;;;;;;4165775;28;20048;-56
2024/03/13 08:26:56;;;;;;;0.30;0.10;;;13.70;99.90;;;;;;4151462;28;20050;-56
2024/03/13 08:29:15;;;;;;;0.93;0.22;;;13.70;99.90;;;;;;4165023;28;20050;-56
2024/03/13 08:31:37;;;;;;;0.20;0.20;;;13.70;99.90;;;;;;4165850;28;20056;-56
2024/03/13 08:33:57;;;;;;;0.22;0.22;;;13.70;99.90;;;;;;4165681;28;20051;-56
2024/03/13 08:36:18;;;;;;;0.63;0.22;;;13.80;99.90;;;;;;4166471;28;20053;-56
2024/03/13 08:38:37;;;;;;;0.20;0.20;;;13.80;99.90;;;;;;4166141;28;20499;-55
2024/03/13 08:40:57;;;;;;;0.28;0.20;;;13.90;99.90;;;;;;4166389;28;20476;-57
2024/03/13 08:43:19;;;;;;;0.47;0.20;;;14.00;99.90;;;;;;4166049;28;20042;-60
2024/03/13 08:45:39;;;;;;;0.20;0.20;;;13.90;99.90;;;;;;4166423;28;20045;-63
2024/03/13 08:48:02;;;;;;;0.77;0.30;;;13.90;99.90;;;;;;4166425;28;20057;-57
2024/03/13 08:50:22;;;;;;;0.35;0.13;;;14.10;99.90;;;;;;4165774;28;20056;-56
2024/03/13 08:52:43;;;;;;;0.77;0.28;;;14.10;99.90;;;;;;4165619;28;20485;-56
2024/03/13 08:55:05;;;;;;;1.40;0.20;;;14.20;99.90;;;;;;4165568;28;20050;-56
2024/03/13 08:57:26;;;;;;;1.25;0.40;;;14.20;99.90;;;;;;4165718;28;20512;-55
2024/03/13 08:59:49;;;;;;;0.57;0.30;;;14.20;99.90;;;;;;4156665;28;20145;-55
2024/03/13 09:02:09;;;;;;;0.30;0.30;;;14.20;99.90;;;;;;4152219;28;20049;-57
2024/03/13 09:04:29;;;;;;;0.38;0.25;;;14.10;99.90;;;;;;4151294;28;20046;-56
2024/03/13 09:06:49;;;;;;;0.30;0.20;;;14.10;99.90;;;;;;4151556;28;20129;-57
2024/03/13 09:08:51;;;;;;;0.30;0.13;;;14.20;99.90;;;;;;4144849;28;20471;-56
2024/03/13 09:10:53;;;;;;;0.47;0.22;;;14.10;99.90;;;;;;4162136;28;20053;-57
2024/03/13 09:12:56;;;;;;;5.05;1.38;;;14.30;99.90;;;;;;4162660;28;20060;-56
2024/03/13 09:15:03;;;;;;;0.55;0.55;;;14.50;99.90;;;;;;4163235;28;20053;-55
2024/03/13 09:17:05;;;;;;;0.68;0.30;;;14.70;99.90;;;;;;4160757;28;20493;-56
2024/03/13 09:19:08;;;;;;;0.05;0.05;;;14.80;99.90;;;;;;4128619;28;20481;-55
2024/03/13 09:21:12;;;;;;;0.60;0.10;;;14.90;99.90;;;;;;4162651;28;20049;-56
2024/03/13 09:23:14;;;;;;;0.10;0.10;;;15.20;99.90;;;;;;4162093;28;20084;-56
2024/03/13 09:25:17;;;;;;;0.10;0.10;;;15.30;99.90;;;;;;4161937;28;20052;-56
2024/03/13 09:27:19;;;;;;;0.25;0.13;;;15.40;99.90;;;;;;4160658;28;20052;-57
2024/03/13 09:29:26;;;;;;;0.35;0.20;;;15.30;99.90;;;;;;4162942;28;20061;-55
2024/03/13 09:31:28;;;;;;;0.47;0.20;;;15.40;99.90;;;;;;4162170;28;20069;-55
2024/03/13 09:33:31;;;;;;;0.75;0.30;;;15.50;99.90;;;;;;4162295;28;20042;-56
2024/03/13 09:35:34;;;;;;;1.67;0.63;;;15.60;99.90;;;;;;4162108;28;20049;-56
2024/03/13 09:37:37;;;;;;;1.98;0.82;;;15.60;99.90;;;;;;4162856;28;20052;-57
2024/03/13 09:39:42;;;;;;;0.90;0.47;;;15.60;99.50;;;;;;4162346;28;20044;-56
2024/03/13 09:41:45;;;;;;;5.47;0.80;;;15.60;99.90;;;;;;4163978;28;20045;-55
2024/03/13 09:43:47;;;;;;;3.35;0.80;;;15.80;99.90;;;;;;4165313;28;20084;-56
2024/03/13 09:45:50;;;;;;;4.25;1.95;;;15.80;99.90;;;;;;4162796;28;20071;-56
2024/03/13 09:47:52;;;;;;;0.95;0.40;;;15.90;99.20;;;;;;4165141;28;20580;-57
2024/03/13 09:49:54;;;;;;;1.30;0.65;;;16.00;99.60;;;;;;4165577;28;20480;-56
2024/03/13 09:51:57;;;;;;;7.25;0.38;;;16.30;99.90;;;;;;4165604;28;20049;-58
2024/03/13 09:54:00;;;;;;;0.60;0.20;;;16.30;99.40;;;;;;4164697;28;20045;-55
2024/03/13 09:56:10;;;;;;;1.45;0.32;;;16.30;98.00;;;;;;4165538;28;20113;-56
2024/03/13 09:58:12;;;;;;;0.95;0.38;;;16.20;98.60;;;;;;4146950;28;20404;-56
2024/03/13 10:00:18;;;;;;;0.20;0.20;;;15.90;98.60;;;;;;4164895;28;20091;-56
2024/03/13 10:02:21;;;;;;;0.77;0.57;;;16.00;98.80;;;;;;4149877;28;20481;-56
2024/03/13 10:04:26;;;;;;;0.60;0.28;;;16.10;98.10;;;;;;4165016;28;20049;-59
2024/03/13 10:06:28;;;;;;;1.48;0.20;;;16.30;99.20;;;;;;4162774;28;20140;-56
2024/03/13 10:08:31;;;;;;;0.20;0.20;;;16.20;98.80;;;;;;4164475;28;20049;-56
2024/03/13 10:10:33;;;;;;;0.65;0.20;;;16.20;98.70;;;;;;4164300;28;20049;-55
2024/03/13 10:12:37;;;;;;;0.65;0.10;;;16.10;98.40;;;;;;4165103;28;20374;-55
2024/03/13 10:14:42;;;;;;;0.38;0.38;;;16.00;98.50;;;;;;4161416;28;20386;-57
2024/03/13 10:16:44;;;;;;;0.00;0.00;;;16.20;99.00;;;;;;4165509;28;20177;-56
2024/03/13 10:18:47;;;;;;;0.38;0.38;;;16.30;98.60;;;;;;4166156;28;20048;-57
2024/03/13 10:20:55;;;;;;;0.28;0.28;;;16.30;98.40;;;;;;4163912;28;20489;-57
2024/03/13 10:22:58;;;;;;;0.65;0.30;;;16.30;98.70;;;;;;4164533;28;20469;-56
2024/03/13 10:25:00;;;;;;;0.32;0.32;;;16.30;98.90;;;;;;4164922;28;20432;-57
2024/03/13 10:27:02;;;;;;;0.82;0.40;;;16.30;98.80;;;;;;4164815;28;20186;-56
2024/03/13 10:29:08;;;;;;;0.20;0.20;;;16.20;99.40;;;;;;4164420;28;20073;-56
2024/03/13 10:31:13;;;;;;;1.02;0.55;;;16.20;99.30;;;;;;4164786;28;20046;-56
2024/03/13 10:33:15;;;;;;;0.85;0.28;;;16.20;99.20;;;;;;4164937;28;20124;-56
2024/03/13 10:35:18;;;;;;;0.25;0.13;;;16.20;98.80;;;;;;4147740;28;20050;-56
2024/03/13 10:37:21;;;;;;;0.15;0.10;;;16.20;98.80;;;;;;4164235;28;20151;-56
2024/03/13 10:39:23;;;;;;;1.23;0.73;;;16.30;98.60;;;;;;4164950;28;20041;-56
2024/03/13 10:41:29;;;;;;;0.10;0.10;;;16.30;99.10;;;;;;4165397;28;20515;-57
2024/03/13 10:43:31;;;;;;;0.10;0.10;;;16.40;98.30;;;;;;4162621;28;20046;-56
2024/03/13 10:45:34;;;;;;;0.10;0.10;;;16.30;98.60;;;;;;4165321;28;20095;-56
2024/03/13 10:47:36;;;;;;;1.20;0.20;;;16.30;98.60;;;;;;4163856;28;20428;-56
2024/03/13 10:49:38;;;;;;;14.55;1.85;;;16.30;98.30;;;;;;4148192;28;20413;-55
2024/03/13 10:51:41;;;;;;;1.65;0.65;;;16.30;98.60;;;;;;4163360;28;20080;-56
2024/03/13 10:53:43;;;;;;;0.10;0.10;;;16.30;98.50;;;;;;4163875;28;20076;-56
2024/03/13 10:55:45;;;;;;;0.38;0.35;;;16.30;98.50;;;;;;4163749;28;20076;-57
2024/03/13 10:57:51;;;;;;;0.63;0.20;;;16.40;98.80;;;;;;4147561;28;20049;-56
2024/03/13 10:59:53;;;;;;;0.45;0.20;;;16.30;99.00;;;;;;4143149;28;20120;-55
2024/03/13 11:01:56;;;;;;;0.10;0.10;;;16.20;97.60;;;;;;4146380;28;20120;-58
2024/03/13 11:03:59;;;;;;;2.17;0.20;;;16.20;98.60;;;;;;4143907;28;20074;-56
2024/03/13 11:06:01;;;;;;;0.38;0.17;;;16.30;98.30;;;;;;4163367;28;20049;-56
2024/03/13 11:08:04;;;;;;;0.68;0.50;;;16.20;98.00;;;;;;4162603;28;20519;-56
2024/03/13 11:10:07;;;;;;;0.60;0.30;;;16.20;98.40;;;;;;4163543;28;20049;-56